sensor_id;sensor_type;location;lat;lon;timestamp;temperature;humidity
3312;DHT22;1668;49.648;8.570;2023-03-23T00:01:57;13.90;20.00
3312;DHT22;1668;49.648;8.570;2023-03-23T00:04:24;13.90;17.60
3312;DHT22;1668;49.648;8.570;2023-03-23T00:06:51;13.90;13.60
3312;DHT22;1668;49.648;8.570;2023-03-23T00:09:19;14.00;1.00
3312;DHT22;1668;49.648;8.570;2023-03-23T00:11:50;14.00;1.00
3312;DHT22;1668;49.648;8.570;2023-03-23T00:14:22;14.00;1.00
3312;DHT22;1668;49.648;8.570;2023-03-23T00:16:50;14.00;1.00
3312;DHT22;1668;49.648;8.570;2023-03-23T00:19:17;14.00;1.00
3312;DHT22;1668;49.648;8.570;2023-03-23T00:21:46;14.00;1.00
3312;DHT22;1668;49.648;8.570;2023-03-23T00:24:14;14.00;1.00
3312;DHT22;1668;49.648;8.570;2023-03-23T00:26:47;14.00;1.00
3312;DHT22;1668;49.648;8.570;2023-03-23T00:29:19;14.00;1.00
3312;DHT22;1668;49.648;8.570;2023-03-23T00:31:47;14.00;1.00
3312;DHT22;1668;49.648;8.570;2023-03-23T00:34:16;14.00;1.00
3312;DHT22;1668;49.648;8.570;2023-03-23T00:36:45;14.00;1.00
3312;DHT22;1668;49.648;8.570;2023-03-23T00:39:12;14.00;1.00
3312;DHT22;1668;49.648;8.570;2023-03-23T00:41:43;14.00;1.00
3312;DHT22;1668;49.648;8.570;2023-03-23T00:44:09;14.00;1.00
3312;DHT22;1668;49.648;8.570;2023-03-23T00:46:42;14.00;1.00
3312;DHT22;1668;49.648;8.570;2023-03-23T00:49:11;13.90;8.50
3312;DHT22;1668;49.648;8.570;2023-03-23T00:51:39;13.90;4.50
3312;DHT22;1668;49.648;8.570;2023-03-23T00:54:05;13.90;37.50
3312;DHT22;1668;49.648;8.570;2023-03-23T00:56:32;13.90;54.70
3312;DHT22;1668;49.648;8.570;2023-03-23T00:59:00;13.90;47.30
3312;DHT22;1668;49.648;8.570;2023-03-23T01:01:27;13.90;64.90
3312;DHT22;1668;49.648;8.570;2023-03-23T01:03:54;13.80;40.20
3312;DHT22;1668;49.648;8.570;2023-03-23T01:06:27;13.80;95.30
3312;DHT22;1668;49.648;8.570;2023-03-23T01:08:56;13.80;32.20
3312;DHT22;1668;49.648;8.570;2023-03-23T01:11:23;13.80;55.40
3312;DHT22;1668;49.648;8.570;2023-03-23T01:13:50;13.80;48.00
3312;DHT22;1668;49.648;8.570;2023-03-23T01:16:19;13.80;35.50
3312;DHT22;1668;49.648;8.570;2023-03-23T01:18:46;13.80;40.60
3312;DHT22;1668;49.648;8.570;2023-03-23T01:21:15;13.80;70.60
3312;DHT22;1668;49.648;8.570;2023-03-23T01:23:43;13.80;84.10
3312;DHT22;1668;49.648;8.570;2023-03-23T01:26:11;13.70;99.00
3312;DHT22;1668;49.648;8.570;2023-03-23T01:28:38;13.70;98.60
3312;DHT22;1668;49.648;8.570;2023-03-23T01:31:07;13.70;99.90
3312;DHT22;1668;49.648;8.570;2023-03-23T01:33:36;13.60;99.90
3312;DHT22;1668;49.648;8.570;2023-03-23T01:36:04;13.60;99.90
3312;DHT22;1668;49.648;8.570;2023-03-23T01:38:31;13.60;99.90
3312;DHT22;1668;49.648;8.570;2023-03-23T01:40:58;13.60;99.90
3312;DHT22;1668;49.648;8.570;2023-03-23T01:43:25;13.60;96.50
3312;DHT22;1668;49.648;8.570;2023-03-23T01:45:52;13.60;71.90
3312;DHT22;1668;49.648;8.570;2023-03-23T01:48:23;13.60;65.10
3312;DHT22;1668;49.648;8.570;2023-03-23T01:50:56;13.60;20.90
3312;DHT22;1668;49.648;8.570;2023-03-23T01:53:27;13.60;19.70
3312;DHT22;1668;49.648;8.570;2023-03-23T01:55:57;13.60;55.00
3312;DHT22;1668;49.648;8.570;2023-03-23T01:58:27;13.60;53.00
3312;DHT22;1668;49.648;8.570;2023-03-23T02:00:57;13.60;8.60
3312;DHT22;1668;49.648;8.570;2023-03-23T02:03:27;13.60;34.30
3312;DHT22;1668;49.648;8.570;2023-03-23T02:05:57;13.60;39.00
3312;DHT22;1668;49.648;8.570;2023-03-23T02:08:26;13.60;28.40
3312;DHT22;1668;49.648;8.570;2023-03-23T02:10:53;13.60;22.30
3312;DHT22;1668;49.648;8.570;2023-03-23T02:13:21;13.60;60.20
3312;DHT22;1668;49.648;8.570;2023-03-23T02:15:54;13.50;61.20
3312;DHT22;1668;49.648;8.570;2023-03-23T02:18:36;13.50;78.80
3312;DHT22;1668;49.648;8.570;2023-03-23T02:24:43;13.50;19.80
3312;DHT22;1668;49.648;8.570;2023-03-23T02:27:24;13.50;3.50
3312;DHT22;1668;49.648;8.570;2023-03-23T02:30:26;13.50;29.00
3312;DHT22;1668;49.648;8.570;2023-03-23T02:33:16;13.50;33.90
3312;DHT22;1668;49.648;8.570;2023-03-23T02:35:52;13.50;24.00
3312;DHT22;1668;49.648;8.570;2023-03-23T02:38:22;13.50;5.10
3312;DHT22;1668;49.648;8.570;2023-03-23T02:40:50;13.50;1.00
3312;DHT22;1668;49.648;8.570;2023-03-23T02:43:20;13.50;1.00
3312;DHT22;1668;49.648;8.570;2023-03-23T02:45:48;13.50;30.20
3312;DHT22;1668;49.648;8.570;2023-03-23T02:48:20;13.50;9.70
3312;DHT22;1668;49.648;8.570;2023-03-23T02:50:51;13.50;1.00
3312;DHT22;1668;49.648;8.570;2023-03-23T02:53:21;13.50;26.70
3312;DHT22;1668;49.648;8.570;2023-03-23T02:55:51;13.50;26.40
3312;DHT22;1668;49.648;8.570;2023-03-23T02:58:20;13.50;2.80
3312;DHT22;1668;49.648;8.570;2023-03-23T03:00:49;13.50;29.00
3312;DHT22;1668;49.648;8.570;2023-03-23T03:03:20;13.50;3.10
3312;DHT22;1668;49.648;8.570;2023-03-23T03:05:54;13.50;2.20
3312;DHT22;1668;49.648;8.570;2023-03-23T03:08:31;13.50;17.50
3312;DHT22;1668;49.648;8.570;2023-03-23T03:11:07;13.50;1.00
3312;DHT22;1668;49.648;8.570;2023-03-23T03:13:43;13.50;31.30
3312;DHT22;1668;49.648;8.570;2023-03-23T03:16:19;13.50;1.00
3312;DHT22;1668;49.648;8.570;2023-03-23T03:18:52;13.50;26.80
3312;DHT22;1668;49.648;8.570;2023-03-23T03:21:24;13.50;61.60
3312;DHT22;1668;49.648;8.570;2023-03-23T03:23:53;13.50;99.90
3312;DHT22;1668;49.648;8.570;2023-03-23T03:26:23;13.40;83.10
3312;DHT22;1668;49.648;8.570;2023-03-23T03:28:53;13.40;99.90
3312;DHT22;1668;49.648;8.570;2023-03-23T03:31:22;13.40;99.90
3312;DHT22;1668;49.648;8.570;2023-03-23T03:33:51;13.40;99.90
3312;DHT22;1668;49.648;8.570;2023-03-23T03:36:21;13.40;99.90
3312;DHT22;1668;49.648;8.570;2023-03-23T03:38:50;13.30;99.90
3312;DHT22;1668;49.648;8.570;2023-03-23T03:41:18;13.30;99.90
3312;DHT22;1668;49.648;8.570;2023-03-23T03:43:45;13.30;99.90
3312;DHT22;1668;49.648;8.570;2023-03-23T03:46:11;13.30;99.90
3312;DHT22;1668;49.648;8.570;2023-03-23T03:48:38;13.30;99.90
3312;DHT22;1668;49.648;8.570;2023-03-23T03:51:07;13.20;99.90
3312;DHT22;1668;49.648;8.570;2023-03-23T03:53:34;13.20;99.90
3312;DHT22;1668;49.648;8.570;2023-03-23T03:56:01;13.20;99.90
3312;DHT22;1668;49.648;8.570;2023-03-23T03:58:28;13.20;99.90
3312;DHT22;1668;49.648;8.570;2023-03-23T04:00:58;13.20;99.90
3312;DHT22;1668;49.648;8.570;2023-03-23T04:03:25;13.20;99.90
3312;DHT22;1668;49.648;8.570;2023-03-23T04:05:53;13.20;99.90
3312;DHT22;1668;49.648;8.570;2023-03-23T04:08:22;13.20;99.90
3312;DHT22;1668;49.648;8.570;2023-03-23T04:10:49;13.20;99.90
3312;DHT22;1668;49.648;8.570;2023-03-23T04:13:17;13.20;99.90
3312;DHT22;1668;49.648;8.570;2023-03-23T04:15:44;13.20;99.90
3312;DHT22;1668;49.648;8.570;2023-03-23T04:18:11;13.20;99.90
3312;DHT22;1668;49.648;8.570;2023-03-23T04:20:40;13.20;99.90
3312;DHT22;1668;49.648;8.570;2023-03-23T04:23:07;13.20;99.90
3312;DHT22;1668;49.648;8.570;2023-03-23T04:25:35;13.20;99.90
3312;DHT22;1668;49.648;8.570;2023-03-23T04:28:03;13.20;99.90
3312;DHT22;1668;49.648;8.570;2023-03-23T04:30:29;13.20;99.90
3312;DHT22;1668;49.648;8.570;2023-03-23T04:32:57;13.20;99.90
3312;DHT22;1668;49.648;8.570;2023-03-23T04:35:26;13.10;1.00
3312;DHT22;1668;49.648;8.570;2023-03-23T04:37:55;13.10;1.00
3312;DHT22;1668;49.648;8.570;2023-03-23T04:40:23;13.10;1.00
3312;DHT22;1668;49.648;8.570;2023-03-23T04:42:51;13.10;1.00
3312;DHT22;1668;49.648;8.570;2023-03-23T04:45:22;13.10;1.00
3312;DHT22;1668;49.648;8.570;2023-03-23T04:47:50;13.20;99.90
3312;DHT22;1668;49.648;8.570;2023-03-23T04:50:23;13.20;1.00
3312;DHT22;1668;49.648;8.570;2023-03-23T04:52:52;13.20;99.90
3312;DHT22;1668;49.648;8.570;2023-03-23T04:55:22;13.30;99.90
3312;DHT22;1668;49.648;8.570;2023-03-23T04:57:49;13.30;99.90
3312;DHT22;1668;49.648;8.570;2023-03-23T05:00:18;13.30;1.00
3312;DHT22;1668;49.648;8.570;2023-03-23T05:02:46;13.40;99.90
3312;DHT22;1668;49.648;8.570;2023-03-23T05:05:17;13.50;99.90
3312;DHT22;1668;49.648;8.570;2023-03-23T05:07:45;13.50;99.90
3312;DHT22;1668;49.648;8.570;2023-03-23T05:10:13;13.50;99.90
3312;DHT22;1668;49.648;8.570;2023-03-23T05:12:40;13.50;99.90
3312;DHT22;1668;49.648;8.570;2023-03-23T05:15:09;13.50;99.90
3312;DHT22;1668;49.648;8.570;2023-03-23T05:17:38;13.60;99.90
3312;DHT22;1668;49.648;8.570;2023-03-23T05:20:07;13.60;99.90
3312;DHT22;1668;49.648;8.570;2023-03-23T05:22:37;13.60;99.90
3312;DHT22;1668;49.648;8.570;2023-03-23T05:25:04;13.60;99.90
3312;DHT22;1668;49.648;8.570;2023-03-23T05:27:34;13.60;99.90
3312;DHT22;1668;49.648;8.570;2023-03-23T05:30:01;13.60;99.90
3312;DHT22;1668;49.648;8.570;2023-03-23T05:32:29;13.70;99.90
3312;DHT22;1668;49.648;8.570;2023-03-23T05:34:58;13.70;99.90
3312;DHT22;1668;49.648;8.570;2023-03-23T05:37:26;13.70;99.90
3312;DHT22;1668;49.648;8.570;2023-03-23T05:39:57;13.70;99.90
3312;DHT22;1668;49.648;8.570;2023-03-23T05:42:29;13.70;99.90
3312;DHT22;1668;49.648;8.570;2023-03-23T05:44:56;13.70;99.90
3312;DHT22;1668;49.648;8.570;2023-03-23T05:47:23;13.70;1.00
3312;DHT22;1668;49.648;8.570;2023-03-23T05:49:50;13.60;1.00
3312;DHT22;1668;49.648;8.570;2023-03-23T05:52:19;13.70;1.00
3312;DHT22;1668;49.648;8.570;2023-03-23T05:54:46;13.70;1.00
3312;DHT22;1668;49.648;8.570;2023-03-23T05:57:14;13.70;1.00
3312;DHT22;1668;49.648;8.570;2023-03-23T05:59:40;13.70;1.00
3312;DHT22;1668;49.648;8.570;2023-03-23T06:02:07;13.70;1.00
3312;DHT22;1668;49.648;8.570;2023-03-23T06:04:35;13.70;1.00
3312;DHT22;1668;49.648;8.570;2023-03-23T06:07:03;13.70;1.00
3312;DHT22;1668;49.648;8.570;2023-03-23T06:09:32;13.60;1.00
3312;DHT22;1668;49.648;8.570;2023-03-23T06:11:59;13.60;1.00
3312;DHT22;1668;49.648;8.570;2023-03-23T06:14:26;13.60;1.00
3312;DHT22;1668;49.648;8.570;2023-03-23T06:16:53;13.60;1.00
3312;DHT22;1668;49.648;8.570;2023-03-23T06:19:20;13.60;1.00
3312;DHT22;1668;49.648;8.570;2023-03-23T06:21:48;13.60;1.00
3312;DHT22;1668;49.648;8.570;2023-03-23T06:24:15;13.60;1.00
3312;DHT22;1668;49.648;8.570;2023-03-23T06:26:43;13.60;1.00
3312;DHT22;1668;49.648;8.570;2023-03-23T06:29:10;13.60;1.00
3312;DHT22;1668;49.648;8.570;2023-03-23T06:31:38;13.60;1.00
3312;DHT22;1668;49.648;8.570;2023-03-23T06:34:07;13.60;1.00
3312;DHT22;1668;49.648;8.570;2023-03-23T06:36:35;13.60;1.00
3312;DHT22;1668;49.648;8.570;2023-03-23T06:39:02;13.60;1.00
3312;DHT22;1668;49.648;8.570;2023-03-23T06:41:31;13.60;1.00
3312;DHT22;1668;49.648;8.570;2023-03-23T06:43:59;13.60;1.00
3312;DHT22;1668;49.648;8.570;2023-03-23T06:46:27;13.60;1.00
3312;DHT22;1668;49.648;8.570;2023-03-23T06:48:54;13.60;1.00
3312;DHT22;1668;49.648;8.570;2023-03-23T06:51:21;13.60;1.00
3312;DHT22;1668;49.648;8.570;2023-03-23T06:53:48;13.50;1.00
3312;DHT22;1668;49.648;8.570;2023-03-23T06:56:15;13.60;1.00
3312;DHT22;1668;49.648;8.570;2023-03-23T06:58:42;13.50;84.50
3312;DHT22;1668;49.648;8.570;2023-03-23T07:01:12;13.50;41.20
3312;DHT22;1668;49.648;8.570;2023-03-23T07:03:40;13.50;50.50
3312;DHT22;1668;49.648;8.570;2023-03-23T07:06:08;13.50;71.70
3312;DHT22;1668;49.648;8.570;2023-03-23T07:08:36;13.50;92.60
3312;DHT22;1668;49.648;8.570;2023-03-23T07:11:04;13.50;99.90
3312;DHT22;1668;49.648;8.570;2023-03-23T07:13:31;13.50;99.90
3312;DHT22;1668;49.648;8.570;2023-03-23T07:15:58;13.50;9.80
3312;DHT22;1668;49.648;8.570;2023-03-23T07:18:27;13.50;99.90
3312;DHT22;1668;49.648;8.570;2023-03-23T07:20:54;13.50;1.00
3312;DHT22;1668;49.648;8.570;2023-03-23T07:23:21;13.50;39.00
3312;DHT22;1668;49.648;8.570;2023-03-23T07:25:48;13.50;99.90
3312;DHT22;1668;49.648;8.570;2023-03-23T07:28:15;13.50;99.90
3312;DHT22;1668;49.648;8.570;2023-03-23T07:30:42;13.40;99.90
3312;DHT22;1668;49.648;8.570;2023-03-23T07:33:10;13.40;99.90
3312;DHT22;1668;49.648;8.570;2023-03-23T07:35:38;13.40;99.90
3312;DHT22;1668;49.648;8.570;2023-03-23T07:38:05;13.40;99.90
3312;DHT22;1668;49.648;8.570;2023-03-23T07:40:33;13.40;99.90
3312;DHT22;1668;49.648;8.570;2023-03-23T07:43:01;13.40;99.90
3312;DHT22;1668;49.648;8.570;2023-03-23T07:45:28;13.40;99.90
3312;DHT22;1668;49.648;8.570;2023-03-23T07:47:55;13.40;99.90
3312;DHT22;1668;49.648;8.570;2023-03-23T07:50:23;13.40;99.90
3312;DHT22;1668;49.648;8.570;2023-03-23T07:52:54;13.40;99.90
3312;DHT22;1668;49.648;8.570;2023-03-23T07:55:21;13.40;99.90
3312;DHT22;1668;49.648;8.570;2023-03-23T07:57:51;13.40;99.90
3312;DHT22;1668;49.648;8.570;2023-03-23T08:00:20;13.40;1.00
3312;DHT22;1668;49.648;8.570;2023-03-23T08:02:50;13.40;99.90
3312;DHT22;1668;49.648;8.570;2023-03-23T08:05:17;13.40;1.00
3312;DHT22;1668;49.648;8.570;2023-03-23T08:07:46;13.40;99.90
3312;DHT22;1668;49.648;8.570;2023-03-23T08:10:15;13.40;1.00
3312;DHT22;1668;49.648;8.570;2023-03-23T08:12:43;13.40;1.00
3312;DHT22;1668;49.648;8.570;2023-03-23T08:15:12;13.40;1.00
3312;DHT22;1668;49.648;8.570;2023-03-23T08:17:40;13.40;1.00
3312;DHT22;1668;49.648;8.570;2023-03-23T08:20:09;13.40;1.00
3312;DHT22;1668;49.648;8.570;2023-03-23T08:22:39;13.40;99.90
3312;DHT22;1668;49.648;8.570;2023-03-23T08:25:09;13.30;99.90
3312;DHT22;1668;49.648;8.570;2023-03-23T08:27:38;13.30;99.90
3312;DHT22;1668;49.648;8.570;2023-03-23T08:30:10;13.30;99.90
3312;DHT22;1668;49.648;8.570;2023-03-23T08:32:37;13.30;99.90
3312;DHT22;1668;49.648;8.570;2023-03-23T08:35:06;13.30;1.00
3312;DHT22;1668;49.648;8.570;2023-03-23T08:37:34;13.30;1.00
3312;DHT22;1668;49.648;8.570;2023-03-23T08:40:02;13.30;1.00
3312;DHT22;1668;49.648;8.570;2023-03-23T08:42:34;13.30;1.00
3312;DHT22;1668;49.648;8.570;2023-03-23T08:45:03;13.30;1.00
3312;DHT22;1668;49.648;8.570;2023-03-23T08:47:31;13.30;1.00
3312;DHT22;1668;49.648;8.570;2023-03-23T08:49:58;13.30;1.00
3312;DHT22;1668;49.648;8.570;2023-03-23T08:52:25;13.30;1.00
3312;DHT22;1668;49.648;8.570;2023-03-23T08:54:52;13.30;18.80
3312;DHT22;1668;49.648;8.570;2023-03-23T08:57:19;13.30;99.90
3312;DHT22;1668;49.648;8.570;2023-03-23T08:59:46;13.20;99.90
3312;DHT22;1668;49.648;8.570;2023-03-23T09:02:14;13.30;1.00
3312;DHT22;1668;49.648;8.570;2023-03-23T09:04:42;13.20;1.00
3312;DHT22;1668;49.648;8.570;2023-03-23T09:07:09;13.20;1.00
3312;DHT22;1668;49.648;8.570;2023-03-23T09:09:37;13.30;1.00
3312;DHT22;1668;49.648;8.570;2023-03-23T09:12:06;13.30;1.00
3312;DHT22;1668;49.648;8.570;2023-03-23T09:14:34;13.30;99.90
3312;DHT22;1668;49.648;8.570;2023-03-23T09:17:01;13.30;99.90
3312;DHT22;1668;49.648;8.570;2023-03-23T09:19:30;13.30;99.90
3312;DHT22;1668;49.648;8.570;2023-03-23T09:21:58;13.30;1.00
3312;DHT22;1668;49.648;8.570;2023-03-23T09:24:26;13.30;1.00
3312;DHT22;1668;49.648;8.570;2023-03-23T09:26:53;13.30;1.00
3312;DHT22;1668;49.648;8.570;2023-03-23T09:29:20;13.40;1.00
3312;DHT22;1668;49.648;8.570;2023-03-23T09:31:46;13.40;1.00
3312;DHT22;1668;49.648;8.570;2023-03-23T09:34:14;13.50;1.00
3312;DHT22;1668;49.648;8.570;2023-03-23T09:36:44;13.50;99.90
3312;DHT22;1668;49.648;8.570;2023-03-23T09:39:11;13.50;99.90
3312;DHT22;1668;49.648;8.570;2023-03-23T09:41:59;13.50;99.90
3312;DHT22;1668;49.648;8.570;2023-03-23T09:44:39;13.60;99.90
3312;DHT22;1668;49.648;8.570;2023-03-23T09:47:12;13.60;41.20
3312;DHT22;1668;49.648;8.570;2023-03-23T09:49:43;13.70;41.60
3312;DHT22;1668;49.648;8.570;2023-03-23T09:52:14;13.70;1.00
3312;DHT22;1668;49.648;8.570;2023-03-23T09:54:43;13.70;1.00
3312;DHT22;1668;49.648;8.570;2023-03-23T09:57:15;13.70;1.00
3312;DHT22;1668;49.648;8.570;2023-03-23T09:59:49;13.70;1.00
3312;DHT22;1668;49.648;8.570;2023-03-23T10:02:20;13.80;1.00
3312;DHT22;1668;49.648;8.570;2023-03-23T10:04:51;13.80;1.00
3312;DHT22;1668;49.648;8.570;2023-03-23T10:07:23;13.80;1.00
3312;DHT22;1668;49.648;8.570;2023-03-23T10:09:56;13.80;1.00
3312;DHT22;1668;49.648;8.570;2023-03-23T10:12:29;13.80;1.00
3312;DHT22;1668;49.648;8.570;2023-03-23T10:15:12;13.80;1.00
3312;DHT22;1668;49.648;8.570;2023-03-23T10:17:46;13.80;55.70
3312;DHT22;1668;49.648;8.570;2023-03-23T10:20:31;13.80;99.90
3312;DHT22;1668;49.648;8.570;2023-03-23T10:23:09;13.70;1.00
3312;DHT22;1668;49.648;8.570;2023-03-23T10:25:42;13.70;1.00
3312;DHT22;1668;49.648;8.570;2023-03-23T10:28:11;13.70;1.00
3312;DHT22;1668;49.648;8.570;2023-03-23T10:30:41;13.80;1.00
3312;DHT22;1668;49.648;8.570;2023-03-23T10:33:14;13.80;99.90
3312;DHT22;1668;49.648;8.570;2023-03-23T10:35:45;13.90;99.90
3312;DHT22;1668;49.648;8.570;2023-03-23T10:38:17;13.90;1.00
3312;DHT22;1668;49.648;8.570;2023-03-23T10:40:50;14.00;99.90
3312;DHT22;1668;49.648;8.570;2023-03-23T10:43:18;13.90;99.90
3312;DHT22;1668;49.648;8.570;2023-03-23T10:45:49;14.00;1.00
3312;DHT22;1668;49.648;8.570;2023-03-23T10:48:22;14.00;1.00
3312;DHT22;1668;49.648;8.570;2023-03-23T10:50:55;14.00;99.90
3312;DHT22;1668;49.648;8.570;2023-03-23T10:53:28;14.00;99.90
3312;DHT22;1668;49.648;8.570;2023-03-23T10:55:57;14.00;99.90
3312;DHT22;1668;49.648;8.570;2023-03-23T10:58:27;14.00;10.60
3312;DHT22;1668;49.648;8.570;2023-03-23T11:00:56;14.00;1.00
3312;DHT22;1668;49.648;8.570;2023-03-23T11:03:35;14.00;1.00
3312;DHT22;1668;49.648;8.570;2023-03-23T11:06:06;14.00;1.00
3312;DHT22;1668;49.648;8.570;2023-03-23T11:08:38;14.00;1.00
3312;DHT22;1668;49.648;8.570;2023-03-23T11:11:15;14.00;1.00
3312;DHT22;1668;49.648;8.570;2023-03-23T11:13:44;14.00;1.00
3312;DHT22;1668;49.648;8.570;2023-03-23T11:16:22;14.00;1.00
3312;DHT22;1668;49.648;8.570;2023-03-23T11:18:49;13.90;1.00
3312;DHT22;1668;49.648;8.570;2023-03-23T11:21:19;13.90;99.90
3312;DHT22;1668;49.648;8.570;2023-03-23T11:23:50;13.90;1.00
3312;DHT22;1668;49.648;8.570;2023-03-23T11:26:21;13.90;99.90
3312;DHT22;1668;49.648;8.570;2023-03-23T11:28:53;13.80;99.90
3312;DHT22;1668;49.648;8.570;2023-03-23T11:31:22;13.80;99.90
3312;DHT22;1668;49.648;8.570;2023-03-23T11:33:53;13.80;1.00
3312;DHT22;1668;49.648;8.570;2023-03-23T11:36:20;13.80;99.90
3312;DHT22;1668;49.648;8.570;2023-03-23T11:38:53;13.80;70.60
3312;DHT22;1668;49.648;8.570;2023-03-23T11:41:23;13.80;99.90
3312;DHT22;1668;49.648;8.570;2023-03-23T11:43:52;13.80;1.00
3312;DHT22;1668;49.648;8.570;2023-03-23T11:46:38;13.80;1.00
3312;DHT22;1668;49.648;8.570;2023-03-23T11:49:12;13.80;99.90
3312;DHT22;1668;49.648;8.570;2023-03-23T11:51:46;13.80;1.00
3312;DHT22;1668;49.648;8.570;2023-03-23T11:54:20;13.80;99.90
3312;DHT22;1668;49.648;8.570;2023-03-23T11:56:50;13.80;99.90
3312;DHT22;1668;49.648;8.570;2023-03-23T11:59:26;13.80;99.90
3312;DHT22;1668;49.648;8.570;2023-03-23T12:01:56;13.80;83.40
3312;DHT22;1668;49.648;8.570;2023-03-23T12:04:56;13.80;1.00
3312;DHT22;1668;49.648;8.570;2023-03-23T12:07:37;13.80;1.00
3312;DHT22;1668;49.648;8.570;2023-03-23T12:10:19;13.80;1.00
3312;DHT22;1668;49.648;8.570;2023-03-23T12:12:54;13.80;36.40
3312;DHT22;1668;49.648;8.570;2023-03-23T12:15:28;13.80;1.00
3312;DHT22;1668;49.648;8.570;2023-03-23T12:18:02;13.90;1.00
3312;DHT22;1668;49.648;8.570;2023-03-23T12:20:40;13.90;1.00
3312;DHT22;1668;49.648;8.570;2023-03-23T12:23:21;13.90;1.00
3312;DHT22;1668;49.648;8.570;2023-03-23T12:26:10;14.00;99.90
3312;DHT22;1668;49.648;8.570;2023-03-23T12:28:50;14.00;1.00
3312;DHT22;1668;49.648;8.570;2023-03-23T12:31:25;14.10;1.00
3312;DHT22;1668;49.648;8.570;2023-03-23T12:33:59;14.10;99.90
3312;DHT22;1668;49.648;8.570;2023-03-23T12:36:48;14.20;8.40
3312;DHT22;1668;49.648;8.570;2023-03-23T12:39:39;14.20;99.90
3312;DHT22;1668;49.648;8.570;2023-03-23T12:42:15;14.20;1.00
3312;DHT22;1668;49.648;8.570;2023-03-23T12:44:46;14.30;1.00
3312;DHT22;1668;49.648;8.570;2023-03-23T12:47:29;14.30;99.90
3312;DHT22;1668;49.648;8.570;2023-03-23T12:50:01;14.40;99.90
3312;DHT22;1668;49.648;8.570;2023-03-23T12:52:33;14.40;99.90
3312;DHT22;1668;49.648;8.570;2023-03-23T12:55:05;14.50;99.90
3312;DHT22;1668;49.648;8.570;2023-03-23T12:57:41;14.50;99.90
3312;DHT22;1668;49.648;8.570;2023-03-23T13:00:14;14.50;99.90
3312;DHT22;1668;49.648;8.570;2023-03-23T13:02:48;14.60;50.20
3312;DHT22;1668;49.648;8.570;2023-03-23T13:05:29;14.70;99.90
3312;DHT22;1668;49.648;8.570;2023-03-23T13:07:59;14.70;55.20
3312;DHT22;1668;49.648;8.570;2023-03-23T13:10:31;14.70;1.00
3312;DHT22;1668;49.648;8.570;2023-03-23T13:13:00;14.70;1.00
3312;DHT22;1668;49.648;8.570;2023-03-23T13:15:34;14.80;1.00
3312;DHT22;1668;49.648;8.570;2023-03-23T13:18:10;14.80;1.00
3312;DHT22;1668;49.648;8.570;2023-03-23T13:20:54;14.80;1.00
3312;DHT22;1668;49.648;8.570;2023-03-23T13:23:24;14.80;1.00
3312;DHT22;1668;49.648;8.570;2023-03-23T13:25:55;14.80;1.00
3312;DHT22;1668;49.648;8.570;2023-03-23T13:28:26;14.80;1.00
3312;DHT22;1668;49.648;8.570;2023-03-23T13:30:59;14.80;1.00
3312;DHT22;1668;49.648;8.570;2023-03-23T13:33:30;14.80;1.00
3312;DHT22;1668;49.648;8.570;2023-03-23T13:36:07;14.80;1.00
3312;DHT22;1668;49.648;8.570;2023-03-23T13:38:36;14.80;24.60
3312;DHT22;1668;49.648;8.570;2023-03-23T13:41:11;14.80;1.00
3312;DHT22;1668;49.648;8.570;2023-03-23T13:43:40;14.80;1.00
3312;DHT22;1668;49.648;8.570;2023-03-23T13:46:23;14.80;1.00
3312;DHT22;1668;49.648;8.570;2023-03-23T13:49:03;14.90;1.00
3312;DHT22;1668;49.648;8.570;2023-03-23T13:51:46;14.90;1.00
3312;DHT22;1668;49.648;8.570;2023-03-23T13:54:23;15.00;1.00
3312;DHT22;1668;49.648;8.570;2023-03-23T13:56:54;15.00;1.00
3312;DHT22;1668;49.648;8.570;2023-03-23T13:59:33;15.00;1.00
3312;DHT22;1668;49.648;8.570;2023-03-23T14:02:29;15.00;1.00
3312;DHT22;1668;49.648;8.570;2023-03-23T14:04:57;14.90;1.00
3312;DHT22;1668;49.648;8.570;2023-03-23T14:07:24;14.90;1.00
3312;DHT22;1668;49.648;8.570;2023-03-23T14:09:51;14.90;1.00
3312;DHT22;1668;49.648;8.570;2023-03-23T14:12:20;14.90;1.00
3312;DHT22;1668;49.648;8.570;2023-03-23T14:14:51;14.90;1.00
3312;DHT22;1668;49.648;8.570;2023-03-23T14:17:25;14.90;1.00
3312;DHT22;1668;49.648;8.570;2023-03-23T14:19:54;14.90;1.00
3312;DHT22;1668;49.648;8.570;2023-03-23T14:22:24;14.90;1.00
3312;DHT22;1668;49.648;8.570;2023-03-23T14:24:59;15.00;1.00
3312;DHT22;1668;49.648;8.570;2023-03-23T14:27:27;15.00;1.00
3312;DHT22;1668;49.648;8.570;2023-03-23T14:29:59;15.00;1.00
3312;DHT22;1668;49.648;8.570;2023-03-23T14:32:28;15.10;1.00
3312;DHT22;1668;49.648;8.570;2023-03-23T14:34:57;15.10;1.00
3312;DHT22;1668;49.648;8.570;2023-03-23T14:37:24;15.10;1.00
3312;DHT22;1668;49.648;8.570;2023-03-23T14:39:52;15.10;1.00
3312;DHT22;1668;49.648;8.570;2023-03-23T14:42:23;15.10;1.00
3312;DHT22;1668;49.648;8.570;2023-03-23T14:44:52;15.20;1.00
3312;DHT22;1668;49.648;8.570;2023-03-23T14:47:23;15.20;1.00
3312;DHT22;1668;49.648;8.570;2023-03-23T14:49:53;15.20;1.00
3312;DHT22;1668;49.648;8.570;2023-03-23T14:52:23;15.20;1.00
3312;DHT22;1668;49.648;8.570;2023-03-23T14:54:51;15.30;99.90
3312;DHT22;1668;49.648;8.570;2023-03-23T14:57:19;15.30;99.90
3312;DHT22;1668;49.648;8.570;2023-03-23T14:59:52;15.30;99.90
3312;DHT22;1668;49.648;8.570;2023-03-23T15:02:23;15.30;99.90
3312;DHT22;1668;49.648;8.570;2023-03-23T15:04:54;15.30;99.90
3312;DHT22;1668;49.648;8.570;2023-03-23T15:07:23;15.30;99.90
3312;DHT22;1668;49.648;8.570;2023-03-23T15:09:51;15.30;99.90
3312;DHT22;1668;49.648;8.570;2023-03-23T15:12:21;15.30;99.90
3312;DHT22;1668;49.648;8.570;2023-03-23T15:14:50;15.30;99.90
3312;DHT22;1668;49.648;8.570;2023-03-23T15:17:19;15.20;99.90
3312;DHT22;1668;49.648;8.570;2023-03-23T15:19:49;15.20;1.00
3312;DHT22;1668;49.648;8.570;2023-03-23T15:22:20;15.20;99.90
3312;DHT22;1668;49.648;8.570;2023-03-23T15:24:47;15.20;1.00
3312;DHT22;1668;49.648;8.570;2023-03-23T15:27:16;15.20;1.00
3312;DHT22;1668;49.648;8.570;2023-03-23T15:29:49;15.20;1.00
3312;DHT22;1668;49.648;8.570;2023-03-23T15:32:27;15.20;1.00
3312;DHT22;1668;49.648;8.570;2023-03-23T15:34:56;15.10;1.00
3312;DHT22;1668;49.648;8.570;2023-03-23T15:37:26;15.10;1.00
3312;DHT22;1668;49.648;8.570;2023-03-23T15:39:55;15.10;1.00
3312;DHT22;1668;49.648;8.570;2023-03-23T15:42:24;15.00;1.00
3312;DHT22;1668;49.648;8.570;2023-03-23T15:44:57;15.00;1.00
3312;DHT22;1668;49.648;8.570;2023-03-23T15:47:35;15.00;1.00
3312;DHT22;1668;49.648;8.570;2023-03-23T15:50:10;15.00;8.90
3312;DHT22;1668;49.648;8.570;2023-03-23T15:52:38;15.00;16.00
3312;DHT22;1668;49.648;8.570;2023-03-23T15:55:19;14.90;99.90
3312;DHT22;1668;49.648;8.570;2023-03-23T15:57:46;14.90;99.90
3312;DHT22;1668;49.648;8.570;2023-03-23T16:00:15;14.90;99.90
3312;DHT22;1668;49.648;8.570;2023-03-23T16:02:44;14.90;98.50
3312;DHT22;1668;49.648;8.570;2023-03-23T16:05:13;14.90;99.90
3312;DHT22;1668;49.648;8.570;2023-03-23T16:07:40;14.90;99.90
3312;DHT22;1668;49.648;8.570;2023-03-23T16:10:14;14.90;99.90
3312;DHT22;1668;49.648;8.570;2023-03-23T16:12:42;14.90;99.90
3312;DHT22;1668;49.648;8.570;2023-03-23T16:15:09;14.90;99.90
3312;DHT22;1668;49.648;8.570;2023-03-23T16:17:36;14.80;99.90
3312;DHT22;1668;49.648;8.570;2023-03-23T16:20:10;14.80;99.90
3312;DHT22;1668;49.648;8.570;2023-03-23T16:22:38;14.80;99.90
3312;DHT22;1668;49.648;8.570;2023-03-23T16:25:06;14.80;99.90
3312;DHT22;1668;49.648;8.570;2023-03-23T16:27:34;14.70;99.90
3312;DHT22;1668;49.648;8.570;2023-03-23T16:30:01;14.70;1.00
3312;DHT22;1668;49.648;8.570;2023-03-23T16:32:29;14.70;1.00
3312;DHT22;1668;49.648;8.570;2023-03-23T16:34:56;14.70;1.00